createdAt,value
2023-04-24T00:00:26.199Z,61912.19
2023-04-24T00:05:30.907Z,61885.88
2023-04-24T00:10:34.148Z,61885.97
2023-04-24T00:15:38.296Z,61890.34
2023-04-24T00:20:41.202Z,61905.00
2023-04-24T00:25:45.363Z,61926.00
2023-04-24T00:30:49.388Z,61951.16
2023-04-24T00:35:52.010Z,61960.50
2023-04-24T00:40:55.611Z,61945.09
2023-04-24T00:46:00.601Z,61926.34
2023-04-24T00:51:03.821Z,61968.00
2023-04-24T00:56:07.557Z,61962.88
2023-04-24T01:01:12.817Z,61943.06
2023-04-24T01:06:16.041Z,61932.25
2023-04-24T01:11:19.847Z,61926.94
2023-04-24T01:16:23.907Z,61925.94
2023-04-24T01:21:29.655Z,61926.47
2023-04-24T01:26:33.846Z,61937.28
2023-04-24T01:31:37.130Z,61936.28
2023-04-24T01:36:40.062Z,61933.53
2023-04-24T01:41:44.179Z,61944.50
2023-04-24T01:46:47.167Z,61913.06
2023-04-24T01:51:49.889Z,61913.31
2023-04-24T01:56:53.973Z,61942.97
2023-04-24T02:01:58.628Z,61905.00
2023-04-24T02:07:01.348Z,61935.75
2023-04-24T02:12:05.556Z,61898.84
2023-04-24T02:17:08.150Z,61930.72
2023-04-24T02:22:11.558Z,61935.44
2023-04-24T02:27:15.774Z,61942.13
2023-04-24T02:32:18.491Z,61932.09
2023-04-24T02:37:21.150Z,61914.84
2023-04-24T02:42:25.069Z,61888.22
2023-04-24T02:47:27.850Z,61900.72
2023-04-24T02:52:30.565Z,61884.66
2023-04-24T02:57:34.616Z,61923.63
2023-04-24T03:02:38.451Z,61930.97
2023-04-24T03:07:41.237Z,61931.03
2023-04-24T03:12:45.369Z,61883.97
2023-04-24T03:17:48.298Z,61903.56
2023-04-24T03:22:51.213Z,61876.44
2023-04-24T03:27:59.783Z,61888.16
2023-04-24T03:33:02.514Z,61885.03
2023-04-24T03:38:06.146Z,61906.81
2023-04-24T03:43:10.143Z,61901.50
2023-04-24T03:48:12.828Z,61866.16
2023-04-24T03:53:15.396Z,61883.81
2023-04-24T03:58:20.431Z,61865.03
2023-04-24T04:03:23.838Z,61873.91
2023-04-24T04:08:26.673Z,61863.03
2023-04-24T04:13:30.624Z,61866.63
2023-04-24T04:18:33.212Z,61867.63
2023-04-24T04:23:57.741Z,61866.03
2023-04-24T04:29:02.340Z,61887.41
2023-04-24T04:34:04.970Z,61851.06
2023-04-24T04:39:07.809Z,61850.78
2023-04-24T04:44:11.853Z,61828.97
2023-04-24T04:49:17.606Z,61880.78
2023-04-24T04:54:20.444Z,61855.22
2023-04-24T04:59:24.411Z,61874.03
2023-04-24T05:04:27.503Z,61823.66
2023-04-24T05:09:30.469Z,61841.78
2023-04-24T05:14:34.406Z,61826.63
2023-04-24T05:19:38.948Z,61852.56
2023-04-24T05:24:41.659Z,61861.91
2023-04-24T05:29:45.957Z,61832.28
2023-04-24T05:34:48.594Z,61801.19
2023-04-24T05:39:51.186Z,61860.41
2023-04-24T05:44:57.859Z,61868.25
2023-04-24T05:50:00.650Z,61829.81
2023-04-24T05:55:03.587Z,61862.00
2023-04-24T06:00:09.356Z,61865.63
2023-04-24T06:05:12.197Z,61877.47
2023-04-24T06:10:14.960Z,61851.94
2023-04-24T06:15:19.088Z,61827.91
2023-04-24T06:20:21.853Z,61843.91
2023-04-24T06:25:26.473Z,61827.22
2023-04-24T06:30:30.395Z,61846.91
2023-04-24T06:35:33.058Z,61812.69
2023-04-24T06:40:35.602Z,61832.34
2023-04-24T06:45:41.258Z,61838.66
2023-04-24T06:50:43.880Z,61846.91
2023-04-24T06:55:47.475Z,61863.06
2023-04-24T07:00:51.511Z,61859.63
2023-04-24T07:05:54.552Z,61861.91
2023-04-24T07:10:57.175Z,61869.31
2023-04-24T07:16:01.171Z,61847.91
2023-04-24T07:21:03.901Z,61850.69
2023-04-24T07:26:06.576Z,61869.31
2023-04-24T07:31:10.920Z,61874.69
2023-04-24T07:36:17.079Z,61871.56
2023-04-24T07:41:19.652Z,61887.53
2023-04-24T07:46:24.335Z,61913.59
2023-04-24T07:51:28.078Z,61929.91
2023-04-24T07:56:32.142Z,61984.03
2023-04-24T08:01:36.308Z,61938.16
2023-04-24T08:06:38.947Z,61934.69
2023-04-24T08:11:41.609Z,61905.00
2023-04-24T08:16:45.660Z,61909.31
2023-04-24T08:21:48.275Z,61898.38
2023-04-24T08:26:53.171Z,61905.06
2023-04-24T08:31:57.138Z,61908.19
2023-04-24T08:36:59.773Z,61889.00
2023-04-24T08:42:06.521Z,61875.38
2023-04-24T08:47:14.588Z,61888.94
2023-04-24T08:52:20.041Z,61876.75
2023-04-24T08:57:23.399Z,61862.59
2023-04-24T09:02:27.871Z,61857.53
2023-04-24T09:07:34.585Z,61823.06
2023-04-24T09:12:37.457Z,61821.25
2023-04-24T09:17:42.475Z,61824.56
2023-04-24T09:22:47.033Z,61841.34
2023-04-24T09:27:49.606Z,61846.78
2023-04-24T09:33:11.928Z,61834.88
2023-04-24T09:38:14.609Z,61888.56
2023-04-24T09:43:17.248Z,61864.88
2023-04-24T09:48:21.236Z,61900.41
2023-04-24T09:53:26.542Z,61885.94
2023-04-24T09:58:30.848Z,61878.97
2023-04-24T10:03:36.084Z,61868.69
2023-04-24T10:08:39.548Z,61847.19
2023-04-24T10:13:42.377Z,61869.38
2023-04-24T10:18:46.929Z,61864.38
2023-04-24T10:23:51.189Z,61841.47
2023-04-24T10:28:54.799Z,61847.19
2023-04-24T10:34:00.437Z,61885.63
2023-04-24T10:39:05.794Z,61945.13
2023-04-24T10:44:09.596Z,61918.50
2023-04-24T10:49:13.769Z,61880.22
2023-04-24T10:54:27.335Z,61837.81
2023-04-24T10:59:38.451Z,61870.28
2023-04-24T11:04:43.934Z,61891.78
2023-04-24T11:09:46.625Z,61909.38
2023-04-24T11:15:05.553Z,61925.06
2023-04-24T11:20:26.785Z,61963.69
2023-04-24T11:25:32.889Z,61915.69
2023-04-24T11:30:36.420Z,61947.25
2023-04-24T11:35:42.834Z,62095.16
2023-04-24T11:40:46.743Z,62053.47
2023-04-24T11:45:50.905Z,62034.44
2023-04-24T11:50:55.026Z,62021.59
2023-04-24T11:55:57.731Z,61965.91
2023-04-24T12:01:00.458Z,61933.31
2023-04-24T12:06:12.712Z,61946.03
2023-04-24T12:11:18.747Z,61933.81
2023-04-24T12:16:21.509Z,61901.19
2023-04-24T12:21:28.244Z,61911.38
2023-04-24T12:26:30.986Z,61970.28
2023-04-24T12:31:33.920Z,62043.41
2023-04-24T12:36:38.900Z,62081.28
2023-04-24T12:41:52.471Z,62022.78
2023-04-24T12:46:55.089Z,61987.34
2023-04-24T12:51:59.090Z,61961.72
2023-04-24T12:57:01.750Z,61970.28
2023-04-24T13:02:04.704Z,62057.34
2023-04-24T13:07:08.710Z,62103.94
2023-04-24T13:12:12.226Z,62105.84
2023-04-24T13:17:15.386Z,62050.97
2023-04-24T13:22:20.775Z,61997.66
2023-04-24T13:27:23.437Z,61898.06
2023-04-24T13:32:26.260Z,61942.56
2023-04-24T13:37:30.406Z,61947.09
2023-04-24T13:42:33.044Z,62094.34
2023-04-24T13:47:36.420Z,62010.81
2023-04-24T13:52:41.690Z,62020.28
2023-04-24T13:57:44.397Z,61942.25
2023-04-24T14:02:49.944Z,61943.56
2023-04-24T14:07:54.208Z,61935.88
2023-04-24T14:12:56.861Z,61953.94
2023-04-24T14:17:59.546Z,61963.28
2023-04-24T14:23:03.788Z,61981.38
2023-04-24T14:28:08.158Z,62033.91
2023-04-24T14:33:11.079Z,62097.66
2023-04-24T14:38:15.011Z,62058.09
2023-04-24T14:43:17.615Z,61998.72
2023-04-24T14:48:20.469Z,61961.72
2023-04-24T14:53:24.511Z,61968.28
2023-04-24T14:58:27.312Z,61916.75
2023-04-24T15:03:30.450Z,61953.25
2023-04-24T15:08:34.629Z,62057.72
2023-04-24T15:13:37.367Z,62165.25
2023-04-24T15:18:39.971Z,62109.75
2023-04-24T15:23:43.957Z,62056.63
2023-04-24T15:28:47.635Z,61990.44
2023-04-24T15:33:51.587Z,62068.78
2023-04-24T15:38:55.877Z,62194.56
2023-04-24T15:43:58.456Z,62198.28
2023-04-24T15:49:02.073Z,62176.66
2023-04-24T15:54:06.352Z,62182.53
2023-04-24T15:59:10.011Z,62078.41
2023-04-24T16:04:13.837Z,62097.44
2023-04-24T16:09:17.957Z,62262.75
2023-04-24T16:14:20.644Z,62166.22
2023-04-24T16:19:23.612Z,62249.28
2023-04-24T16:24:30.109Z,62097.41
2023-04-24T16:29:32.888Z,62050.84
2023-04-24T16:34:35.511Z,62170.31
2023-04-24T16:39:44.059Z,62089.41
2023-04-24T16:44:48.011Z,61993.06
2023-04-24T16:49:50.921Z,62035.28
2023-04-24T16:54:54.902Z,61985.22
2023-04-24T16:59:57.766Z,61958.06
2023-04-24T17:05:00.635Z,61959.19
2023-04-24T17:10:05.596Z,62006.47
2023-04-24T17:15:08.780Z,61971.06
2023-04-24T17:20:22.257Z,61950.56
2023-04-24T17:25:27.428Z,61978.78
2023-04-24T17:30:30.152Z,61924.03
2023-04-24T17:35:33.089Z,61908.28
2023-04-24T17:40:38.093Z,61945.38
2023-04-24T17:45:41.994Z,61895.00
2023-04-24T17:50:44.674Z,61908.84
2023-04-24T17:55:48.851Z,61922.25
2023-04-24T18:00:51.769Z,61898.97
2023-04-24T18:05:54.721Z,61839.00
2023-04-24T18:10:59.166Z,61859.00
2023-04-24T18:16:01.969Z,61839.41
2023-04-24T18:21:06.045Z,61832.81
2023-04-24T18:26:10.055Z,61812.63
2023-04-24T18:31:12.936Z,61816.81
2023-04-24T18:36:15.639Z,61751.56
2023-04-24T18:41:19.921Z,61784.34
2023-04-24T18:46:22.591Z,61783.66
2023-04-24T18:51:25.383Z,61773.25
2023-04-24T18:56:29.352Z,61789.69
2023-04-24T19:01:33.099Z,61775.13
2023-04-24T19:06:35.909Z,61788.03
2023-04-24T19:11:41.553Z,61785.91
2023-04-24T19:16:44.360Z,61754.13
2023-04-24T19:21:47.551Z,61755.13
2023-04-24T19:26:51.553Z,61771.69
2023-04-24T19:31:54.674Z,61768.63
2023-04-24T19:36:57.584Z,61763.50
2023-04-24T19:42:04.110Z,61779.00
2023-04-24T19:47:08.173Z,61749.91
2023-04-24T19:52:10.843Z,61730.69
2023-04-24T19:57:14.848Z,61765.97
2023-04-24T20:02:17.758Z,61781.75
2023-04-24T20:07:20.536Z,61728.41
2023-04-24T20:12:24.509Z,61759.91
2023-04-24T20:17:27.159Z,61737.19
2023-04-24T20:22:31.558Z,61751.78
2023-04-24T20:27:36.064Z,61756.91
2023-04-24T20:32:38.998Z,61749.06
2023-04-24T20:37:41.623Z,61736.59
2023-04-24T20:42:46.321Z,61718.84
2023-04-24T20:47:50.582Z,61749.41
2023-04-24T20:52:53.437Z,61730.84
2023-04-24T20:57:57.477Z,61696.34
2023-04-24T21:03:00.185Z,61699.00
2023-04-24T21:08:05.143Z,61694.72
2023-04-24T21:13:09.093Z,61701.88
2023-04-24T21:18:11.797Z,61687.81
2023-04-24T21:23:14.388Z,61694.94
2023-04-24T21:28:18.542Z,61644.63
2023-04-24T21:33:21.174Z,61692.28
2023-04-24T21:38:25.183Z,61698.50
2023-04-24T21:43:43.547Z,61693.72
2023-04-24T21:48:47.541Z,61670.38
2023-04-24T21:53:50.380Z,61668.28
2023-04-24T21:58:54.533Z,61676.63
2023-04-24T22:03:57.317Z,61656.34
2023-04-24T22:09:00.037Z,61667.16
2023-04-24T22:14:03.957Z,61708.59
2023-04-24T22:19:06.568Z,61675.03
2023-04-24T22:24:09.837Z,61661.97
2023-04-24T22:29:13.838Z,61691.03
2023-04-24T22:34:17.040Z,61664.56
2023-04-24T22:39:19.765Z,61665.63
2023-04-24T22:44:23.694Z,61667.22
2023-04-24T22:49:27.277Z,61670.38
2023-04-24T22:54:30.120Z,61710.25
2023-04-24T22:59:34.093Z,61659.97
2023-04-24T23:04:37.621Z,61686.97
2023-04-24T23:09:40.142Z,61663.69
2023-04-24T23:14:44.368Z,61718.53
2023-04-24T23:19:47.052Z,61700.03
2023-04-24T23:24:49.638Z,61679.16
2023-04-24T23:29:53.543Z,61670.13
2023-04-24T23:34:56.455Z,61661.09
2023-04-24T23:39:59.072Z,61619.94
2023-04-24T23:45:03.007Z,61667.34
2023-04-24T23:50:06.776Z,61607.22
2023-04-24T23:55:10.647Z,61642.75
